SCPU weather

Peulla Airport
Peulla, Los Lagos Region, Chile

Public forecast

Using degrees Celsius for public forecast. Weather courtesy of forecast.io.

METAR (pilot weather report)

Closest report is San Carlos De Bariloche Airport, 38.9 nm (72.1 km) E. Retrieved 2019/07/17 19:10 UTC (37 minutes ago):

SAZS 171910Z 30025KT 8000 RA SCT015 BKN024 04/01 Q1007

TAF (pilot weather forecast)

Closest forecast is San Carlos De Bariloche Airport, 38.9 nm (72.1 km) E. Retrieved 2019/07/17 18:00 UTC (2 hours ago):

TAF SAZS 171700Z 1718/1818 30020G30KT 6000 RA BKN015 BKN030 TX05/1618Z TNM01/1811Z BECMG 1720/1723 27020KT 8000 -RADZ SCT020 BKN035 BECMG 1800/1803 9999 SCT030 BECMG 1806/1809 27010KT FEW030 BECMG 1813/1816 29010KT CAVOK